sensor_id;sensor_type;location;lat;lon;timestamp;P1;durP1;ratioP1;P2;durP2;ratioP2
12112;SDS011;6120;52.250;8.478;2024-03-08T00:00:34;25.73;;;13.32;;
12112;SDS011;6120;52.250;8.478;2024-03-08T00:03:01;28.10;;;13.57;;
12112;SDS011;6120;52.250;8.478;2024-03-08T00:05:29;25.15;;;14.52;;
12112;SDS011;6120;52.250;8.478;2024-03-08T00:07:56;26.63;;;14.45;;
12112;SDS011;6120;52.250;8.478;2024-03-08T00:10:23;26.70;;;14.63;;
12112;SDS011;6120;52.250;8.478;2024-03-08T00:12:53;27.80;;;14.45;;
12112;SDS011;6120;52.250;8.478;2024-03-08T00:15:20;26.73;;;13.85;;
12112;SDS011;6120;52.250;8.478;2024-03-08T00:17:49;30.52;;;14.82;;
12112;SDS011;6120;52.250;8.478;2024-03-08T00:20:16;24.17;;;13.48;;
12112;SDS011;6120;52.250;8.478;2024-03-08T00:22:46;26.00;;;13.82;;
12112;SDS011;6120;52.250;8.478;2024-03-08T00:25:13;27.67;;;14.48;;
12112;SDS011;6120;52.250;8.478;2024-03-08T00:27:40;25.65;;;14.50;;
12112;SDS011;6120;52.250;8.478;2024-03-08T00:30:09;25.52;;;13.05;;
12112;SDS011;6120;52.250;8.478;2024-03-08T00:32:39;24.85;;;13.30;;
12112;SDS011;6120;52.250;8.478;2024-03-08T00:35:06;27.63;;;14.38;;
12112;SDS011;6120;52.250;8.478;2024-03-08T00:37:34;26.90;;;14.02;;
12112;SDS011;6120;52.250;8.478;2024-03-08T00:40:00;24.40;;;13.63;;
12112;SDS011;6120;52.250;8.478;2024-03-08T00:42:27;26.02;;;14.27;;
12112;SDS011;6120;52.250;8.478;2024-03-08T00:44:54;30.27;;;13.73;;
12112;SDS011;6120;52.250;8.478;2024-03-08T00:47:21;27.17;;;13.90;;
12112;SDS011;6120;52.250;8.478;2024-03-08T00:49:47;26.33;;;14.35;;
12112;SDS011;6120;52.250;8.478;2024-03-08T00:52:14;25.83;;;14.00;;
12112;SDS011;6120;52.250;8.478;2024-03-08T00:54:41;23.50;;;12.93;;
12112;SDS011;6120;52.250;8.478;2024-03-08T00:57:09;29.90;;;15.23;;
12112;SDS011;6120;52.250;8.478;2024-03-08T00:59:39;28.42;;;14.82;;
12112;SDS011;6120;52.250;8.478;2024-03-08T01:02:06;29.65;;;13.98;;
12112;SDS011;6120;52.250;8.478;2024-03-08T01:04:33;27.40;;;14.02;;
12112;SDS011;6120;52.250;8.478;2024-03-08T01:07:00;27.10;;;13.77;;
12112;SDS011;6120;52.250;8.478;2024-03-08T01:09:27;26.27;;;13.20;;
12112;SDS011;6120;52.250;8.478;2024-03-08T01:11:54;26.67;;;14.50;;
12112;SDS011;6120;52.250;8.478;2024-03-08T01:14:22;25.73;;;13.88;;
12112;SDS011;6120;52.250;8.478;2024-03-08T01:16:49;28.52;;;13.75;;
12112;SDS011;6120;52.250;8.478;2024-03-08T01:19:16;27.23;;;14.13;;
12112;SDS011;6120;52.250;8.478;2024-03-08T01:21:43;27.10;;;14.07;;
12112;SDS011;6120;52.250;8.478;2024-03-08T01:24:10;24.35;;;13.80;;
12112;SDS011;6120;52.250;8.478;2024-03-08T01:26:37;26.70;;;14.50;;
12112;SDS011;6120;52.250;8.478;2024-03-08T01:29:05;28.73;;;14.60;;
12112;SDS011;6120;52.250;8.478;2024-03-08T01:31:31;27.17;;;14.60;;
12112;SDS011;6120;52.250;8.478;2024-03-08T01:33:58;26.73;;;14.75;;
12112;SDS011;6120;52.250;8.478;2024-03-08T01:36:25;25.98;;;13.48;;
12112;SDS011;6120;52.250;8.478;2024-03-08T01:38:52;29.20;;;14.77;;
12112;SDS011;6120;52.250;8.478;2024-03-08T01:41:19;27.25;;;14.75;;
12112;SDS011;6120;52.250;8.478;2024-03-08T01:43:46;27.35;;;15.00;;
12112;SDS011;6120;52.250;8.478;2024-03-08T01:46:14;26.17;;;13.95;;
12112;SDS011;6120;52.250;8.478;2024-03-08T01:48:44;29.80;;;15.35;;
12112;SDS011;6120;52.250;8.478;2024-03-08T01:51:12;26.42;;;14.45;;
12112;SDS011;6120;52.250;8.478;2024-03-08T01:53:42;27.00;;;14.68;;
12112;SDS011;6120;52.250;8.478;2024-03-08T01:56:12;25.42;;;13.77;;
12112;SDS011;6120;52.250;8.478;2024-03-08T01:58:43;27.73;;;14.45;;
12112;SDS011;6120;52.250;8.478;2024-03-08T02:01:13;27.63;;;14.40;;
12112;SDS011;6120;52.250;8.478;2024-03-08T02:03:43;26.15;;;13.88;;
12112;SDS011;6120;52.250;8.478;2024-03-08T02:06:11;28.02;;;14.18;;
12112;SDS011;6120;52.250;8.478;2024-03-08T02:08:43;27.13;;;14.55;;
12112;SDS011;6120;52.250;8.478;2024-03-08T02:11:11;26.95;;;14.18;;
12112;SDS011;6120;52.250;8.478;2024-03-08T02:13:39;27.92;;;14.35;;
12112;SDS011;6120;52.250;8.478;2024-03-08T02:16:06;27.48;;;14.70;;
12112;SDS011;6120;52.250;8.478;2024-03-08T02:18:34;28.77;;;14.63;;
12112;SDS011;6120;52.250;8.478;2024-03-08T02:21:02;24.25;;;13.57;;
12112;SDS011;6120;52.250;8.478;2024-03-08T02:23:30;26.30;;;13.63;;
12112;SDS011;6120;52.250;8.478;2024-03-08T02:25:58;28.98;;;14.30;;
12112;SDS011;6120;52.250;8.478;2024-03-08T02:28:25;27.15;;;14.15;;
12112;SDS011;6120;52.250;8.478;2024-03-08T02:30:52;28.67;;;15.00;;
12112;SDS011;6120;52.250;8.478;2024-03-08T02:33:22;29.38;;;14.13;;
12112;SDS011;6120;52.250;8.478;2024-03-08T02:35:50;26.70;;;14.20;;
12112;SDS011;6120;52.250;8.478;2024-03-08T02:38:20;26.35;;;13.80;;
12112;SDS011;6120;52.250;8.478;2024-03-08T02:40:49;29.45;;;14.32;;
12112;SDS011;6120;52.250;8.478;2024-03-08T02:43:18;29.15;;;14.35;;
12112;SDS011;6120;52.250;8.478;2024-03-08T02:45:46;25.48;;;14.77;;
12112;SDS011;6120;52.250;8.478;2024-03-08T02:48:13;30.30;;;15.35;;
12112;SDS011;6120;52.250;8.478;2024-03-08T02:50:40;27.23;;;15.00;;
12112;SDS011;6120;52.250;8.478;2024-03-08T02:53:09;31.63;;;15.07;;
12112;SDS011;6120;52.250;8.478;2024-03-08T02:55:37;27.98;;;14.20;;
12112;SDS011;6120;52.250;8.478;2024-03-08T02:58:04;29.45;;;15.45;;
12112;SDS011;6120;52.250;8.478;2024-03-08T03:00:31;29.52;;;15.77;;
12112;SDS011;6120;52.250;8.478;2024-03-08T03:05:25;25.48;;;13.15;;
12112;SDS011;6120;52.250;8.478;2024-03-08T03:07:52;27.65;;;14.00;;
12112;SDS011;6120;52.250;8.478;2024-03-08T03:10:19;28.80;;;14.48;;
12112;SDS011;6120;52.250;8.478;2024-03-08T03:12:48;27.75;;;15.07;;
12112;SDS011;6120;52.250;8.478;2024-03-08T03:15:15;28.95;;;15.13;;
12112;SDS011;6120;52.250;8.478;2024-03-08T03:17:48;24.08;;;12.93;;
12112;SDS011;6120;52.250;8.478;2024-03-08T03:20:17;26.77;;;13.13;;
12112;SDS011;6120;52.250;8.478;2024-03-08T03:22:53;25.90;;;14.73;;
12112;SDS011;6120;52.250;8.478;2024-03-08T03:25:20;27.98;;;13.90;;
12112;SDS011;6120;52.250;8.478;2024-03-08T03:27:52;27.25;;;14.25;;
12112;SDS011;6120;52.250;8.478;2024-03-08T03:30:23;29.55;;;14.80;;
12112;SDS011;6120;52.250;8.478;2024-03-08T03:32:52;36.90;;;15.73;;
12112;SDS011;6120;52.250;8.478;2024-03-08T03:35:21;28.88;;;14.02;;
12112;SDS011;6120;52.250;8.478;2024-03-08T03:37:49;29.35;;;14.95;;
12112;SDS011;6120;52.250;8.478;2024-03-08T03:40:28;28.55;;;14.75;;
12112;SDS011;6120;52.250;8.478;2024-03-08T03:42:55;29.27;;;14.68;;
12112;SDS011;6120;52.250;8.478;2024-03-08T03:45:23;29.08;;;15.07;;
12112;SDS011;6120;52.250;8.478;2024-03-08T03:47:50;26.43;;;14.03;;
12112;SDS011;6120;52.250;8.478;2024-03-08T03:50:18;27.98;;;14.85;;
12112;SDS011;6120;52.250;8.478;2024-03-08T03:52:49;26.30;;;14.85;;
12112;SDS011;6120;52.250;8.478;2024-03-08T03:55:16;29.85;;;15.05;;
12112;SDS011;6120;52.250;8.478;2024-03-08T03:57:43;30.08;;;15.50;;
12112;SDS011;6120;52.250;8.478;2024-03-08T04:00:14;32.28;;;15.77;;
12112;SDS011;6120;52.250;8.478;2024-03-08T04:02:41;32.03;;;15.93;;
12112;SDS011;6120;52.250;8.478;2024-03-08T04:05:08;30.25;;;15.50;;
12112;SDS011;6120;52.250;8.478;2024-03-08T04:07:35;31.40;;;15.43;;
12112;SDS011;6120;52.250;8.478;2024-03-08T04:10:03;30.90;;;15.55;;
12112;SDS011;6120;52.250;8.478;2024-03-08T04:12:30;31.55;;;15.57;;
12112;SDS011;6120;52.250;8.478;2024-03-08T04:14:56;29.13;;;15.13;;
12112;SDS011;6120;52.250;8.478;2024-03-08T04:17:23;35.30;;;15.10;;
12112;SDS011;6120;52.250;8.478;2024-03-08T04:19:50;35.40;;;16.27;;
12112;SDS011;6120;52.250;8.478;2024-03-08T04:22:17;31.13;;;15.77;;
12112;SDS011;6120;52.250;8.478;2024-03-08T04:24:44;30.92;;;16.08;;
12112;SDS011;6120;52.250;8.478;2024-03-08T04:27:12;32.45;;;15.63;;
12112;SDS011;6120;52.250;8.478;2024-03-08T04:29:39;36.30;;;16.23;;
12112;SDS011;6120;52.250;8.478;2024-03-08T04:32:06;32.80;;;15.93;;
12112;SDS011;6120;52.250;8.478;2024-03-08T04:34:35;32.38;;;15.05;;
12112;SDS011;6120;52.250;8.478;2024-03-08T04:37:02;30.67;;;14.85;;
12112;SDS011;6120;52.250;8.478;2024-03-08T04:39:31;35.20;;;16.48;;
12112;SDS011;6120;52.250;8.478;2024-03-08T04:41:59;33.95;;;15.70;;
12112;SDS011;6120;52.250;8.478;2024-03-08T04:44:33;33.70;;;16.63;;
12112;SDS011;6120;52.250;8.478;2024-03-08T04:47:00;35.78;;;17.15;;
12112;SDS011;6120;52.250;8.478;2024-03-08T04:49:27;34.85;;;16.48;;
12112;SDS011;6120;52.250;8.478;2024-03-08T04:51:54;34.53;;;16.97;;
12112;SDS011;6120;52.250;8.478;2024-03-08T04:54:21;36.00;;;16.85;;
12112;SDS011;6120;52.250;8.478;2024-03-08T04:56:48;39.70;;;17.80;;
12112;SDS011;6120;52.250;8.478;2024-03-08T04:59:14;33.15;;;15.77;;
12112;SDS011;6120;52.250;8.478;2024-03-08T05:01:41;33.05;;;15.90;;
12112;SDS011;6120;52.250;8.478;2024-03-08T05:04:08;36.88;;;17.25;;
12112;SDS011;6120;52.250;8.478;2024-03-08T05:06:35;32.25;;;16.85;;
12112;SDS011;6120;52.250;8.478;2024-03-08T05:09:03;36.72;;;16.42;;
12112;SDS011;6120;52.250;8.478;2024-03-08T05:11:40;32.58;;;16.27;;
12112;SDS011;6120;52.250;8.478;2024-03-08T05:14:07;34.03;;;16.00;;
12112;SDS011;6120;52.250;8.478;2024-03-08T05:16:34;34.17;;;16.08;;
12112;SDS011;6120;52.250;8.478;2024-03-08T05:19:01;36.08;;;16.73;;
12112;SDS011;6120;52.250;8.478;2024-03-08T05:21:28;33.38;;;16.17;;
12112;SDS011;6120;52.250;8.478;2024-03-08T05:23:58;34.05;;;16.48;;
12112;SDS011;6120;52.250;8.478;2024-03-08T05:26:24;35.50;;;16.98;;
12112;SDS011;6120;52.250;8.478;2024-03-08T05:28:51;32.72;;;16.40;;
12112;SDS011;6120;52.250;8.478;2024-03-08T05:31:21;38.70;;;16.33;;
12112;SDS011;6120;52.250;8.478;2024-03-08T05:33:50;32.17;;;16.58;;
12112;SDS011;6120;52.250;8.478;2024-03-08T05:36:17;34.30;;;17.17;;
12112;SDS011;6120;52.250;8.478;2024-03-08T05:38:44;36.97;;;17.00;;
12112;SDS011;6120;52.250;8.478;2024-03-08T05:41:11;38.10;;;18.77;;
12112;SDS011;6120;52.250;8.478;2024-03-08T05:43:41;34.35;;;16.67;;
12112;SDS011;6120;52.250;8.478;2024-03-08T05:46:08;34.05;;;17.52;;
12112;SDS011;6120;52.250;8.478;2024-03-08T05:48:34;37.08;;;16.58;;
12112;SDS011;6120;52.250;8.478;2024-03-08T05:51:01;36.38;;;17.20;;
12112;SDS011;6120;52.250;8.478;2024-03-08T05:53:29;34.47;;;16.27;;
12112;SDS011;6120;52.250;8.478;2024-03-08T05:55:58;33.70;;;16.23;;
12112;SDS011;6120;52.250;8.478;2024-03-08T05:58:25;34.17;;;17.10;;
12112;SDS011;6120;52.250;8.478;2024-03-08T06:00:52;31.77;;;15.63;;
12112;SDS011;6120;52.250;8.478;2024-03-08T06:03:19;32.75;;;17.15;;
12112;SDS011;6120;52.250;8.478;2024-03-08T06:08:15;30.70;;;15.00;;
12112;SDS011;6120;52.250;8.478;2024-03-08T06:10:42;33.78;;;16.92;;
12112;SDS011;6120;52.250;8.478;2024-03-08T06:13:08;33.67;;;15.90;;
12112;SDS011;6120;52.250;8.478;2024-03-08T06:15:35;36.20;;;17.08;;
12112;SDS011;6120;52.250;8.478;2024-03-08T06:18:02;36.40;;;16.55;;
12112;SDS011;6120;52.250;8.478;2024-03-08T06:20:29;38.25;;;17.52;;
12112;SDS011;6120;52.250;8.478;2024-03-08T06:22:56;35.25;;;17.80;;
12112;SDS011;6120;52.250;8.478;2024-03-08T06:25:22;35.65;;;16.40;;
12112;SDS011;6120;52.250;8.478;2024-03-08T06:27:49;38.60;;;17.63;;
12112;SDS011;6120;52.250;8.478;2024-03-08T06:30:16;34.95;;;16.98;;
12112;SDS011;6120;52.250;8.478;2024-03-08T06:32:43;38.08;;;18.00;;
12112;SDS011;6120;52.250;8.478;2024-03-08T06:35:10;35.42;;;16.52;;
12112;SDS011;6120;52.250;8.478;2024-03-08T06:37:36;33.88;;;17.42;;
12112;SDS011;6120;52.250;8.478;2024-03-08T06:40:03;32.25;;;16.75;;
12112;SDS011;6120;52.250;8.478;2024-03-08T06:42:30;37.05;;;18.92;;
12112;SDS011;6120;52.250;8.478;2024-03-08T06:45:01;34.90;;;16.92;;
12112;SDS011;6120;52.250;8.478;2024-03-08T06:47:32;35.33;;;17.00;;
12112;SDS011;6120;52.250;8.478;2024-03-08T06:50:00;36.65;;;17.33;;
12112;SDS011;6120;52.250;8.478;2024-03-08T06:52:26;37.50;;;17.08;;
12112;SDS011;6120;52.250;8.478;2024-03-08T06:54:53;37.75;;;18.10;;
12112;SDS011;6120;52.250;8.478;2024-03-08T06:57:20;36.28;;;17.83;;
12112;SDS011;6120;52.250;8.478;2024-03-08T06:59:48;38.95;;;18.08;;
12112;SDS011;6120;52.250;8.478;2024-03-08T07:02:15;35.05;;;17.50;;
12112;SDS011;6120;52.250;8.478;2024-03-08T07:04:42;38.33;;;18.05;;
12112;SDS011;6120;52.250;8.478;2024-03-08T07:07:09;37.15;;;17.98;;
12112;SDS011;6120;52.250;8.478;2024-03-08T07:09:36;37.95;;;18.67;;
12112;SDS011;6120;52.250;8.478;2024-03-08T07:12:03;34.28;;;16.85;;
12112;SDS011;6120;52.250;8.478;2024-03-08T07:14:30;36.73;;;17.53;;
12112;SDS011;6120;52.250;8.478;2024-03-08T07:17:00;35.20;;;18.02;;
12112;SDS011;6120;52.250;8.478;2024-03-08T07:19:30;37.88;;;19.27;;
12112;SDS011;6120;52.250;8.478;2024-03-08T07:21:57;34.40;;;16.77;;
12112;SDS011;6120;52.250;8.478;2024-03-08T07:24:24;39.83;;;18.92;;
12112;SDS011;6120;52.250;8.478;2024-03-08T07:27:05;36.65;;;17.85;;
12112;SDS011;6120;52.250;8.478;2024-03-08T07:29:32;37.80;;;18.02;;
12112;SDS011;6120;52.250;8.478;2024-03-08T07:32:00;36.42;;;17.77;;
12112;SDS011;6120;52.250;8.478;2024-03-08T07:34:27;39.95;;;17.63;;
12112;SDS011;6120;52.250;8.478;2024-03-08T07:36:54;35.70;;;18.10;;
12112;SDS011;6120;52.250;8.478;2024-03-08T07:39:22;37.35;;;17.70;;
12112;SDS011;6120;52.250;8.478;2024-03-08T07:41:51;33.25;;;16.00;;
12112;SDS011;6120;52.250;8.478;2024-03-08T07:44:19;38.95;;;19.92;;
12112;SDS011;6120;52.250;8.478;2024-03-08T07:46:46;35.25;;;18.13;;
12112;SDS011;6120;52.250;8.478;2024-03-08T07:49:13;34.72;;;17.20;;
12112;SDS011;6120;52.250;8.478;2024-03-08T07:51:41;34.65;;;17.65;;
12112;SDS011;6120;52.250;8.478;2024-03-08T07:54:08;35.00;;;18.23;;
12112;SDS011;6120;52.250;8.478;2024-03-08T07:56:35;36.60;;;18.50;;
12112;SDS011;6120;52.250;8.478;2024-03-08T08:01:30;35.53;;;16.80;;
12112;SDS011;6120;52.250;8.478;2024-03-08T08:03:57;35.45;;;17.58;;
12112;SDS011;6120;52.250;8.478;2024-03-08T08:06:24;38.58;;;18.80;;
12112;SDS011;6120;52.250;8.478;2024-03-08T08:08:51;36.83;;;18.02;;
12112;SDS011;6120;52.250;8.478;2024-03-08T08:11:18;35.17;;;18.73;;
12112;SDS011;6120;52.250;8.478;2024-03-08T08:13:46;36.10;;;16.55;;
12112;SDS011;6120;52.250;8.478;2024-03-08T08:16:13;36.28;;;18.55;;
12112;SDS011;6120;52.250;8.478;2024-03-08T08:18:40;35.55;;;17.85;;
12112;SDS011;6120;52.250;8.478;2024-03-08T08:21:07;36.17;;;18.00;;
12112;SDS011;6120;52.250;8.478;2024-03-08T08:23:34;36.35;;;17.83;;
12112;SDS011;6120;52.250;8.478;2024-03-08T08:26:00;34.47;;;17.98;;
12112;SDS011;6120;52.250;8.478;2024-03-08T08:28:29;34.67;;;18.60;;
12112;SDS011;6120;52.250;8.478;2024-03-08T08:30:57;33.40;;;17.97;;
12112;SDS011;6120;52.250;8.478;2024-03-08T08:33:26;36.17;;;18.73;;
12112;SDS011;6120;52.250;8.478;2024-03-08T08:35:53;36.42;;;18.42;;
12112;SDS011;6120;52.250;8.478;2024-03-08T08:38:20;35.90;;;18.58;;
12112;SDS011;6120;52.250;8.478;2024-03-08T08:40:47;33.45;;;18.45;;
12112;SDS011;6120;52.250;8.478;2024-03-08T08:43:13;33.15;;;17.35;;
12112;SDS011;6120;52.250;8.478;2024-03-08T08:45:40;36.83;;;18.33;;
12112;SDS011;6120;52.250;8.478;2024-03-08T08:50:36;34.03;;;17.75;;
12112;SDS011;6120;52.250;8.478;2024-03-08T08:53:04;35.45;;;17.88;;
12112;SDS011;6120;52.250;8.478;2024-03-08T08:55:33;35.90;;;18.33;;
12112;SDS011;6120;52.250;8.478;2024-03-08T08:58:02;40.15;;;17.95;;
12112;SDS011;6120;52.250;8.478;2024-03-08T09:00:29;37.42;;;18.92;;
12112;SDS011;6120;52.250;8.478;2024-03-08T09:02:57;34.35;;;18.60;;
12112;SDS011;6120;52.250;8.478;2024-03-08T09:05:25;34.85;;;18.55;;
12112;SDS011;6120;52.250;8.478;2024-03-08T09:07:52;31.38;;;17.60;;
12112;SDS011;6120;52.250;8.478;2024-03-08T09:10:19;34.42;;;19.23;;
12112;SDS011;6120;52.250;8.478;2024-03-08T09:12:46;34.75;;;17.70;;
12112;SDS011;6120;52.250;8.478;2024-03-08T09:15:13;37.20;;;19.30;;
12112;SDS011;6120;52.250;8.478;2024-03-08T09:17:40;33.90;;;18.08;;
12112;SDS011;6120;52.250;8.478;2024-03-08T09:20:09;31.85;;;19.30;;
12112;SDS011;6120;52.250;8.478;2024-03-08T09:22:44;35.72;;;18.63;;
12112;SDS011;6120;52.250;8.478;2024-03-08T09:25:12;33.35;;;18.33;;
12112;SDS011;6120;52.250;8.478;2024-03-08T09:27:39;32.88;;;18.48;;
12112;SDS011;6120;52.250;8.478;2024-03-08T09:30:07;32.45;;;18.70;;
12112;SDS011;6120;52.250;8.478;2024-03-08T09:32:34;30.55;;;17.60;;
12112;SDS011;6120;52.250;8.478;2024-03-08T09:35:01;29.90;;;17.90;;
12112;SDS011;6120;52.250;8.478;2024-03-08T09:37:29;28.40;;;16.42;;
12112;SDS011;6120;52.250;8.478;2024-03-08T09:39:55;30.20;;;18.02;;
12112;SDS011;6120;52.250;8.478;2024-03-08T09:42:22;30.95;;;17.13;;
12112;SDS011;6120;52.250;8.478;2024-03-08T09:44:49;29.52;;;16.75;;
12112;SDS011;6120;52.250;8.478;2024-03-08T09:47:16;28.65;;;16.98;;
12112;SDS011;6120;52.250;8.478;2024-03-08T09:49:44;30.45;;;17.88;;
12112;SDS011;6120;52.250;8.478;2024-03-08T09:52:12;29.33;;;17.48;;
12112;SDS011;6120;52.250;8.478;2024-03-08T09:54:39;33.58;;;17.98;;
12112;SDS011;6120;52.250;8.478;2024-03-08T09:57:06;29.13;;;17.25;;
12112;SDS011;6120;52.250;8.478;2024-03-08T09:59:35;29.35;;;17.10;;
12112;SDS011;6120;52.250;8.478;2024-03-08T10:02:02;29.00;;;16.85;;
12112;SDS011;6120;52.250;8.478;2024-03-08T10:04:29;29.42;;;17.20;;
12112;SDS011;6120;52.250;8.478;2024-03-08T10:06:57;32.08;;;17.50;;
12112;SDS011;6120;52.250;8.478;2024-03-08T10:09:25;28.02;;;17.80;;
12112;SDS011;6120;52.250;8.478;2024-03-08T10:11:55;33.58;;;18.65;;
12112;SDS011;6120;52.250;8.478;2024-03-08T10:14:23;31.55;;;17.55;;
12112;SDS011;6120;52.250;8.478;2024-03-08T10:16:51;27.65;;;16.92;;
12112;SDS011;6120;52.250;8.478;2024-03-08T10:19:19;28.13;;;17.00;;
12112;SDS011;6120;52.250;8.478;2024-03-08T10:21:52;28.55;;;17.08;;
12112;SDS011;6120;52.250;8.478;2024-03-08T10:24:23;29.88;;;17.33;;
12112;SDS011;6120;52.250;8.478;2024-03-08T10:26:53;32.35;;;17.85;;
12112;SDS011;6120;52.250;8.478;2024-03-08T10:29:24;27.17;;;16.52;;
12112;SDS011;6120;52.250;8.478;2024-03-08T10:31:51;28.67;;;16.65;;
12112;SDS011;6120;52.250;8.478;2024-03-08T10:34:18;29.70;;;17.40;;
12112;SDS011;6120;52.250;8.478;2024-03-08T10:36:46;25.70;;;16.83;;
12112;SDS011;6120;52.250;8.478;2024-03-08T10:41:53;26.15;;;16.45;;
12112;SDS011;6120;52.250;8.478;2024-03-08T10:47:12;27.40;;;16.85;;
12112;SDS011;6120;52.250;8.478;2024-03-08T10:49:54;24.58;;;15.52;;
12112;SDS011;6120;52.250;8.478;2024-03-08T10:52:30;28.15;;;15.77;;
12112;SDS011;6120;52.250;8.478;2024-03-08T10:54:58;27.00;;;16.33;;
12112;SDS011;6120;52.250;8.478;2024-03-08T10:57:25;32.67;;;17.63;;
12112;SDS011;6120;52.250;8.478;2024-03-08T10:59:53;28.75;;;16.52;;
12112;SDS011;6120;52.250;8.478;2024-03-08T11:02:25;30.17;;;16.60;;
12112;SDS011;6120;52.250;8.478;2024-03-08T11:04:53;31.23;;;17.65;;
12112;SDS011;6120;52.250;8.478;2024-03-08T11:07:23;29.02;;;16.10;;
12112;SDS011;6120;52.250;8.478;2024-03-08T11:09:54;28.70;;;16.48;;
12112;SDS011;6120;52.250;8.478;2024-03-08T11:12:26;33.58;;;17.35;;
12112;SDS011;6120;52.250;8.478;2024-03-08T11:14:57;29.58;;;16.10;;
12112;SDS011;6120;52.250;8.478;2024-03-08T11:19:57;28.13;;;15.75;;
12112;SDS011;6120;52.250;8.478;2024-03-08T11:22:28;29.05;;;16.02;;
12112;SDS011;6120;52.250;8.478;2024-03-08T11:25:02;27.73;;;16.33;;
12112;SDS011;6120;52.250;8.478;2024-03-08T11:27:37;28.42;;;16.02;;
12112;SDS011;6120;52.250;8.478;2024-03-08T11:30:05;30.52;;;16.65;;
12112;SDS011;6120;52.250;8.478;2024-03-08T11:32:44;30.23;;;15.98;;
12112;SDS011;6120;52.250;8.478;2024-03-08T11:35:21;27.48;;;15.88;;
12112;SDS011;6120;52.250;8.478;2024-03-08T11:40:17;27.65;;;15.38;;
12112;SDS011;6120;52.250;8.478;2024-03-08T11:42:45;25.83;;;15.40;;
12112;SDS011;6120;52.250;8.478;2024-03-08T11:47:44;25.45;;;14.82;;
12112;SDS011;6120;52.250;8.478;2024-03-08T11:50:14;28.27;;;16.08;;
12112;SDS011;6120;52.250;8.478;2024-03-08T11:52:41;27.65;;;15.32;;
12112;SDS011;6120;52.250;8.478;2024-03-08T11:55:09;29.15;;;15.73;;
12112;SDS011;6120;52.250;8.478;2024-03-08T11:57:39;26.63;;;14.32;;
12112;SDS011;6120;52.250;8.478;2024-03-08T12:00:06;29.27;;;15.38;;
12112;SDS011;6120;52.250;8.478;2024-03-08T12:02:33;25.65;;;14.15;;
12112;SDS011;6120;52.250;8.478;2024-03-08T12:05:05;25.77;;;15.30;;
12112;SDS011;6120;52.250;8.478;2024-03-08T12:07:36;24.90;;;14.30;;
12112;SDS011;6120;52.250;8.478;2024-03-08T12:10:16;23.20;;;14.18;;
12112;SDS011;6120;52.250;8.478;2024-03-08T12:12:48;24.98;;;14.93;;
12112;SDS011;6120;52.250;8.478;2024-03-08T12:15:18;24.50;;;13.80;;
12112;SDS011;6120;52.250;8.478;2024-03-08T12:17:49;27.38;;;15.40;;
12112;SDS011;6120;52.250;8.478;2024-03-08T12:20:18;26.13;;;15.38;;
12112;SDS011;6120;52.250;8.478;2024-03-08T12:22:49;24.83;;;14.50;;
12112;SDS011;6120;52.250;8.478;2024-03-08T12:25:20;26.42;;;14.85;;
12112;SDS011;6120;52.250;8.478;2024-03-08T12:27:47;27.40;;;14.32;;
12112;SDS011;6120;52.250;8.478;2024-03-08T12:32:58;23.70;;;14.25;;
12112;SDS011;6120;52.250;8.478;2024-03-08T12:35:26;26.02;;;14.27;;
12112;SDS011;6120;52.250;8.478;2024-03-08T12:37:58;26.23;;;14.38;;
12112;SDS011;6120;52.250;8.478;2024-03-08T12:40:26;24.38;;;14.35;;
12112;SDS011;6120;52.250;8.478;2024-03-08T12:42:55;23.60;;;13.90;;
12112;SDS011;6120;52.250;8.478;2024-03-08T12:45:23;24.08;;;13.68;;
12112;SDS011;6120;52.250;8.478;2024-03-08T12:47:50;27.17;;;14.30;;
12112;SDS011;6120;52.250;8.478;2024-03-08T12:50:17;25.42;;;14.63;;
12112;SDS011;6120;52.250;8.478;2024-03-08T12:52:44;27.48;;;14.85;;
12112;SDS011;6120;52.250;8.478;2024-03-08T12:55:11;24.42;;;14.18;;
12112;SDS011;6120;52.250;8.478;2024-03-08T12:57:39;24.17;;;14.03;;
12112;SDS011;6120;52.250;8.478;2024-03-08T13:00:06;24.52;;;14.07;;
12112;SDS011;6120;52.250;8.478;2024-03-08T13:02:39;26.42;;;14.23;;
12112;SDS011;6120;52.250;8.478;2024-03-08T13:05:06;25.15;;;14.63;;
12112;SDS011;6120;52.250;8.478;2024-03-08T13:07:35;21.55;;;12.77;;
12112;SDS011;6120;52.250;8.478;2024-03-08T13:10:03;25.40;;;14.43;;
12112;SDS011;6120;52.250;8.478;2024-03-08T13:12:31;23.98;;;13.77;;
12112;SDS011;6120;52.250;8.478;2024-03-08T13:14:57;26.67;;;15.70;;
12112;SDS011;6120;52.250;8.478;2024-03-08T13:17:24;24.02;;;14.60;;
12112;SDS011;6120;52.250;8.478;2024-03-08T13:19:51;25.42;;;14.88;;
12112;SDS011;6120;52.250;8.478;2024-03-08T13:22:22;26.40;;;15.25;;
12112;SDS011;6120;52.250;8.478;2024-03-08T13:24:49;25.88;;;15.50;;
12112;SDS011;6120;52.250;8.478;2024-03-08T13:27:19;24.70;;;14.65;;
12112;SDS011;6120;52.250;8.478;2024-03-08T13:29:46;27.80;;;14.43;;
12112;SDS011;6120;52.250;8.478;2024-03-08T13:32:16;26.98;;;14.77;;
12112;SDS011;6120;52.250;8.478;2024-03-08T13:34:43;25.77;;;15.02;;
12112;SDS011;6120;52.250;8.478;2024-03-08T13:37:20;25.73;;;15.55;;
12112;SDS011;6120;52.250;8.478;2024-03-08T13:39:47;29.63;;;16.27;;
12112;SDS011;6120;52.250;8.478;2024-03-08T13:42:14;28.73;;;15.77;;
12112;SDS011;6120;52.250;8.478;2024-03-08T13:44:46;27.20;;;14.55;;
12112;SDS011;6120;52.250;8.478;2024-03-08T13:47:16;24.42;;;13.73;;
12112;SDS011;6120;52.250;8.478;2024-03-08T13:49:43;24.05;;;13.68;;
12112;SDS011;6120;52.250;8.478;2024-03-08T13:52:10;28.35;;;15.38;;
12112;SDS011;6120;52.250;8.478;2024-03-08T13:54:38;25.13;;;14.85;;
12112;SDS011;6120;52.250;8.478;2024-03-08T13:57:06;27.98;;;15.13;;
12112;SDS011;6120;52.250;8.478;2024-03-08T13:59:33;23.73;;;13.57;;
12112;SDS011;6120;52.250;8.478;2024-03-08T14:02:01;25.52;;;15.07;;
12112;SDS011;6120;52.250;8.478;2024-03-08T14:04:28;26.45;;;13.82;;
12112;SDS011;6120;52.250;8.478;2024-03-08T14:06:55;23.30;;;14.00;;
12112;SDS011;6120;52.250;8.478;2024-03-08T14:09:30;24.02;;;14.90;;
12112;SDS011;6120;52.250;8.478;2024-03-08T14:11:57;27.50;;;15.35;;
12112;SDS011;6120;52.250;8.478;2024-03-08T14:14:25;25.50;;;14.57;;
12112;SDS011;6120;52.250;8.478;2024-03-08T14:16:51;26.00;;;14.77;;
12112;SDS011;6120;52.250;8.478;2024-03-08T14:19:24;28.27;;;14.55;;
12112;SDS011;6120;52.250;8.478;2024-03-08T14:21:51;25.45;;;14.57;;
12112;SDS011;6120;52.250;8.478;2024-03-08T14:26:46;23.60;;;14.50;;
12112;SDS011;6120;52.250;8.478;2024-03-08T14:29:15;27.13;;;14.93;;
12112;SDS011;6120;52.250;8.478;2024-03-08T14:31:44;27.23;;;15.75;;
12112;SDS011;6120;52.250;8.478;2024-03-08T14:34:11;29.00;;;16.00;;
12112;SDS011;6120;52.250;8.478;2024-03-08T14:36:40;27.13;;;15.55;;
12112;SDS011;6120;52.250;8.478;2024-03-08T14:39:07;24.10;;;15.27;;
12112;SDS011;6120;52.250;8.478;2024-03-08T14:41:33;26.25;;;15.55;;
12112;SDS011;6120;52.250;8.478;2024-03-08T14:44:00;25.85;;;14.93;;
12112;SDS011;6120;52.250;8.478;2024-03-08T14:46:28;26.02;;;14.75;;
12112;SDS011;6120;52.250;8.478;2024-03-08T14:48:54;27.27;;;16.13;;
12112;SDS011;6120;52.250;8.478;2024-03-08T14:51:22;27.70;;;15.85;;
12112;SDS011;6120;52.250;8.478;2024-03-08T14:53:52;27.55;;;14.88;;
12112;SDS011;6120;52.250;8.478;2024-03-08T14:56:21;25.60;;;15.15;;
12112;SDS011;6120;52.250;8.478;2024-03-08T14:58:49;28.33;;;15.63;;
12112;SDS011;6120;52.250;8.478;2024-03-08T15:01:16;24.77;;;15.18;;
12112;SDS011;6120;52.250;8.478;2024-03-08T15:03:42;27.13;;;15.45;;
12112;SDS011;6120;52.250;8.478;2024-03-08T15:06:09;28.42;;;14.95;;